Time;durP1;ratioP1;P1;durP2;ratioP2;P2;SDS_P1;SDS_P2;PMS_P1;PMS_P2;Temp;Humidity;BMP_temperature;BMP_pressure;BME280_temperature;BME280_humidity;BME280_pressure;Samples;Min_cycle;Max_cycle;Signal;HPM_P1;HPM_P2
2021/12/03 00:01:26;;;;;;;5.23;2.60;;;;;;;;;;5064070;28;20450;-69
2021/12/03 00:03:55;;;;;;;3.60;2.20;;;;;;;;;;5052311;28;20533;-68
2021/12/03 00:06:23;;;;;;;4.20;2.43;;;;;;;;;;5063060;28;20450;-69
2021/12/03 00:08:50;;;;;;;2.93;2.00;;;;;;;;;;5060268;28;20457;-69
2021/12/03 00:11:18;;;;;;;2.00;1.77;;;;;;;;;;5067303;28;20478;-69
2021/12/03 00:13:45;;;;;;;3.43;2.73;;;;;;;;;;5052720;28;20478;-69
2021/12/03 00:16:12;;;;;;;2.73;1.80;;;;;;;;;;5052385;28;20687;-69
2021/12/03 00:18:40;;;;;;;4.27;2.23;;;;;;;;;;5059647;28;20857;-70
2021/12/03 00:21:11;;;;;;;4.80;2.90;;;;;;;;;;5069195;28;20460;-69
2021/12/03 00:23:38;;;;;;;4.70;3.30;;;;;;;;;;5064271;28;20447;-70
2021/12/03 00:26:06;;;;;;;3.80;2.27;;;;;;;;;;5057040;28;20532;-69
2021/12/03 00:28:33;;;;;;;2.57;2.27;;;;;;;;;;5053318;28;20450;-70
2021/12/03 00:31:02;;;;;;;5.50;2.77;;;;;;;;;;5054986;28;20481;-69
2021/12/03 00:33:30;;;;;;;3.83;1.97;;;;;;;;;;5071133;28;20945;-69
2021/12/03 00:35:59;;;;;;;4.93;2.40;;;;;;;;;;5070835;28;20536;-70
2021/12/03 00:38:30;;;;;;;6.03;2.70;;;;;;;;;;5062421;28;20450;-70
2021/12/03 00:40:57;;;;;;;5.07;2.70;;;;;;;;;;5060553;28;20472;-69
2021/12/03 00:43:24;;;;;;;5.07;3.13;;;;;;;;;;5069942;28;20915;-69
2021/12/03 00:45:54;;;;;;;7.73;4.20;;;;;;;;;;5066420;28;21001;-69
2021/12/03 00:48:21;;;;;;;4.10;3.17;;;;;;;;;;5062528;28;20554;-69
2021/12/03 00:50:48;;;;;;;4.37;3.37;;;;;;;;;;5063161;28;21004;-69
2021/12/03 00:53:15;;;;;;;4.50;2.93;;;;;;;;;;5063475;28;20519;-69
2021/12/03 00:55:44;;;;;;;5.40;3.57;;;;;;;;;;5066728;28;20481;-69
2021/12/03 00:58:11;;;;;;;3.40;2.80;;;;;;;;;;5070894;28;20484;-69
2021/12/03 01:00:38;;;;;;;6.33;3.37;;;;;;;;;;5065438;28;20493;-69
2021/12/03 01:03:05;;;;;;;4.67;3.37;;;;;;;;;;5051503;28;20547;-69
2021/12/03 01:05:33;;;;;;;3.87;2.90;;;;;;;;;;5069326;28;20450;-69
2021/12/03 01:08:00;;;;;;;4.13;3.27;;;;;;;;;;5070336;28;20549;-69
2021/12/03 01:10:29;;;;;;;5.13;3.93;;;;;;;;;;5066044;28;20542;-69
2021/12/03 01:12:58;;;;;;;4.80;2.63;;;;;;;;;;5050867;28;20454;-69
2021/12/03 01:15:27;;;;;;;3.10;2.80;;;;;;;;;;5058095;28;20812;-69
2021/12/03 01:17:54;;;;;;;4.60;2.97;;;;;;;;;;5070631;28;20897;-68
2021/12/03 01:20:23;;;;;;;4.87;3.30;;;;;;;;;;5067930;28;20458;-69
2021/12/03 01:22:51;;;;;;;6.67;4.00;;;;;;;;;;5070283;28;20549;-69
2021/12/03 01:25:20;;;;;;;4.37;3.87;;;;;;;;;;5053799;28;20538;-69
2021/12/03 01:27:47;;;;;;;4.70;3.10;;;;;;;;;;5060417;28;20452;-69
2021/12/03 01:30:17;;;;;;;4.00;3.60;;;;;;;;;;5067169;28;20911;-69
2021/12/03 01:32:45;;;;;;;7.00;3.77;;;;;;;;;;5058793;28;20456;-69
2021/12/03 01:35:13;;;;;;;5.03;3.30;;;;;;;;;;5066755;28;20554;-69
2021/12/03 01:37:40;;;;;;;5.27;3.97;;;;;;;;;;5051440;28;20454;-70
2021/12/03 01:40:09;;;;;;;5.53;2.80;;;;;;;;;;5051165;28;20883;-70
2021/12/03 01:42:38;;;;;;;3.00;2.40;;;;;;;;;;5054679;28;20457;-71
2021/12/03 01:45:05;;;;;;;4.63;3.10;;;;;;;;;;5069632;28;20441;-70
2021/12/03 01:47:34;;;;;;;3.20;2.33;;;;;;;;;;5056874;28;20782;-70
2021/12/03 01:50:01;;;;;;;5.40;3.07;;;;;;;;;;5067200;28;20499;-70
2021/12/03 01:52:28;;;;;;;4.90;3.30;;;;;;;;;;5069765;28;20446;-71
2021/12/03 01:54:59;;;;;;;4.40;3.10;;;;;;;;;;5069639;28;20453;-70
2021/12/03 01:57:26;;;;;;;6.50;3.40;;;;;;;;;;5052080;28;20808;-71
2021/12/03 01:59:54;;;;;;;6.23;3.63;;;;;;;;;;5052644;28;20553;-70
2021/12/03 02:02:21;;;;;;;4.30;3.50;;;;;;;;;;5054711;28;20453;-71
2021/12/03 02:04:49;;;;;;;4.17;3.53;;;;;;;;;;5063126;28;20441;-71
2021/12/03 02:07:17;;;;;;;6.90;3.70;;;;;;;;;;5062495;28;20945;-71
2021/12/03 02:09:44;;;;;;;3.97;3.57;;;;;;;;;;5067362;28;20453;-71
2021/12/03 02:12:11;;;;;;;3.47;2.90;;;;;;;;;;5062819;28;20994;-71
2021/12/03 02:14:38;;;;;;;4.60;3.40;;;;;;;;;;5056713;28;20542;-71
2021/12/03 02:17:06;;;;;;;4.47;3.77;;;;;;;;;;5068758;28;20509;-71
2021/12/03 02:19:35;;;;;;;5.40;3.60;;;;;;;;;;5069827;28;20473;-71
2021/12/03 02:22:04;;;;;;;6.50;3.73;;;;;;;;;;5069542;28;20545;-71
2021/12/03 02:24:31;;;;;;;3.50;2.80;;;;;;;;;;5055470;28;20537;-70
2021/12/03 02:26:58;;;;;;;5.30;4.20;;;;;;;;;;5065558;28;20533;-71
2021/12/03 02:29:26;;;;;;;4.97;3.97;;;;;;;;;;5052387;28;20453;-70
2021/12/03 02:31:54;;;;;;;6.13;3.90;;;;;;;;;;5067672;28;20530;-70
2021/12/03 02:34:21;;;;;;;5.03;3.07;;;;;;;;;;5065237;28;20445;-71
2021/12/03 02:36:48;;;;;;;3.37;2.90;;;;;;;;;;5054937;28;20533;-71
2021/12/03 02:39:17;;;;;;;6.10;4.47;;;;;;;;;;5061476;28;20550;-71
2021/12/03 02:41:44;;;;;;;6.57;3.90;;;;;;;;;;5064806;28;20481;-71
2021/12/03 02:44:11;;;;;;;5.73;3.80;;;;;;;;;;5069155;28;20477;-71
2021/12/03 02:46:38;;;;;;;5.60;3.37;;;;;;;;;;5069394;28;20449;-71
2021/12/03 02:49:08;;;;;;;4.00;3.50;;;;;;;;;;5085261;28;20522;-70
2021/12/03 02:51:35;;;;;;;5.80;4.27;;;;;;;;;;5084948;28;20477;-71
2021/12/03 02:54:02;;;;;;;10.00;4.40;;;;;;;;;;5050530;28;20972;-70
2021/12/03 02:56:31;;;;;;;5.47;3.80;;;;;;;;;;5051126;28;20530;-70
2021/12/03 02:58:58;;;;;;;5.33;4.00;;;;;;;;;;5052785;28;20529;-71
2021/12/03 03:01:25;;;;;;;9.17;4.53;;;;;;;;;;5060945;28;20536;-70
2021/12/03 03:03:52;;;;;;;5.20;4.17;;;;;;;;;;5064522;28;20445;-69
2021/12/03 03:06:20;;;;;;;4.90;3.20;;;;;;;;;;5061765;28;20884;-71
2021/12/03 03:08:48;;;;;;;5.93;4.37;;;;;;;;;;5068511;28;20942;-71
2021/12/03 03:11:16;;;;;;;4.10;3.57;;;;;;;;;;5065212;28;20469;-70
2021/12/03 03:13:45;;;;;;;6.60;4.30;;;;;;;;;;5056318;28;20540;-70
2021/12/03 03:16:12;;;;;;;5.20;3.30;;;;;;;;;;5068775;28;21479;-71
2021/12/03 03:18:39;;;;;;;4.70;3.87;;;;;;;;;;5070841;28;20441;-71
2021/12/03 03:21:07;;;;;;;7.70;3.87;;;;;;;;;;5058402;28;20450;-70
2021/12/03 03:23:34;;;;;;;7.20;4.67;;;;;;;;;;5059790;28;20536;-71
2021/12/03 03:26:02;;;;;;;7.23;3.80;;;;;;;;;;5065989;28;20872;-71
2021/12/03 03:28:29;;;;;;;3.80;3.27;;;;;;;;;;5053528;28;20446;-70
2021/12/03 03:31:00;;;;;;;5.67;4.07;;;;;;;;;;5053035;28;20478;-71
2021/12/03 03:33:28;;;;;;;6.23;4.13;;;;;;;;;;5070612;28;20456;-71
2021/12/03 03:35:55;;;;;;;5.10;3.50;;;;;;;;;;5069829;28;20452;-70
2021/12/03 03:38:23;;;;;;;4.77;3.60;;;;;;;;;;5064739;28;20442;-70
2021/12/03 03:40:50;;;;;;;6.23;4.47;;;;;;;;;;5058020;28;20848;-71
2021/12/03 03:43:18;;;;;;;3.97;3.13;;;;;;;;;;5071722;28;20508;-71
2021/12/03 03:45:46;;;;;;;6.30;3.60;;;;;;;;;;5072995;28;21906;-72
2021/12/03 03:48:14;;;;;;;11.90;4.33;;;;;;;;;;5063503;28;20529;-70
2021/12/03 03:50:41;;;;;;;6.60;4.90;;;;;;;;;;5067646;28;20481;-71
2021/12/03 03:53:09;;;;;;;6.23;5.20;;;;;;;;;;5053069;28;20439;-71
2021/12/03 03:55:36;;;;;;;5.90;4.10;;;;;;;;;;5058957;28;20454;-71
2021/12/03 03:58:04;;;;;;;5.20;4.70;;;;;;;;;;5065749;28;20443;-71
2021/12/03 04:00:33;;;;;;;5.63;4.43;;;;;;;;;;5067244;28;20455;-71
2021/12/03 04:03:00;;;;;;;6.03;4.27;;;;;;;;;;5061967;28;20806;-71
2021/12/03 04:05:28;;;;;;;6.70;4.30;;;;;;;;;;5064201;28;20454;-71
2021/12/03 04:07:56;;;;;;;6.60;4.80;;;;;;;;;;5052358;28;20541;-71
2021/12/03 04:10:23;;;;;;;5.90;3.87;;;;;;;;;;5054442;28;20446;-70
2021/12/03 04:12:51;;;;;;;8.17;4.43;;;;;;;;;;5072589;28;20456;-71
2021/12/03 04:15:19;;;;;;;6.90;4.50;;;;;;;;;;5057666;28;20523;-71
2021/12/03 04:17:47;;;;;;;5.50;3.87;;;;;;;;;;5052110;28;20458;-71
2021/12/03 04:20:15;;;;;;;7.40;3.87;;;;;;;;;;5054656;28;21013;-71
2021/12/03 04:22:44;;;;;;;4.33;3.40;;;;;;;;;;5072560;28;20450;-71
2021/12/03 04:25:13;;;;;;;7.07;5.43;;;;;;;;;;5070711;28;20532;-71
2021/12/03 04:27:40;;;;;;;7.33;6.50;;;;;;;;;;5061849;28;20528;-71
2021/12/03 04:30:09;;;;;;;6.50;5.60;;;;;;;;;;5059089;28;20446;-71
2021/12/03 04:32:36;;;;;;;5.57;4.10;;;;;;;;;;5061884;28;20489;-71
2021/12/03 04:35:04;;;;;;;9.10;3.90;;;;;;;;;;5066971;28;20541;-71
2021/12/03 04:37:31;;;;;;;5.53;4.60;;;;;;;;;;5057777;28;20453;-71
2021/12/03 04:39:59;;;;;;;9.80;5.23;;;;;;;;;;5055693;28;20446;-71
2021/12/03 04:42:27;;;;;;;10.03;4.60;;;;;;;;;;5061378;28;20536;-71
2021/12/03 04:44:54;;;;;;;5.20;3.73;;;;;;;;;;5069911;28;20511;-70
2021/12/03 04:47:21;;;;;;;6.23;4.40;;;;;;;;;;5058793;28;20456;-71
2021/12/03 04:49:48;;;;;;;6.40;5.10;;;;;;;;;;5052997;28;20470;-71
2021/12/03 04:52:15;;;;;;;7.47;5.53;;;;;;;;;;5051446;28;21019;-71
2021/12/03 04:54:42;;;;;;;6.50;4.50;;;;;;;;;;5055271;28;20533;-72
2021/12/03 04:57:11;;;;;;;6.03;4.33;;;;;;;;;;5051627;28;20450;-72
2021/12/03 04:59:39;;;;;;;6.23;4.63;;;;;;;;;;5065457;28;20449;-71
2021/12/03 05:02:06;;;;;;;8.83;5.30;;;;;;;;;;5058561;28;20541;-71
2021/12/03 05:04:37;;;;;;;5.10;3.60;;;;;;;;;;5053757;28;20456;-71
2021/12/03 05:07:16;;;;;;;4.97;3.97;;;;;;;;;;5067189;28;20810;-71
2021/12/03 05:09:43;;;;;;;6.00;4.13;;;;;;;;;;5061741;28;20498;-71
2021/12/03 05:12:12;;;;;;;5.10;4.60;;;;;;;;;;5069944;28;20520;-71
2021/12/03 05:14:39;;;;;;;5.53;4.40;;;;;;;;;;5069015;28;20485;-71
2021/12/03 05:17:06;;;;;;;8.70;5.13;;;;;;;;;;5070561;28;20441;-71
2021/12/03 05:19:34;;;;;;;6.93;4.90;;;;;;;;;;5056836;28;20457;-71
2021/12/03 05:22:01;;;;;;;6.47;4.37;;;;;;;;;;5054553;28;20448;-71
2021/12/03 05:24:28;;;;;;;6.40;5.13;;;;;;;;;;5070389;28;20452;-71
2021/12/03 05:26:55;;;;;;;8.23;4.37;;;;;;;;;;5070250;28;20460;-70
2021/12/03 05:29:24;;;;;;;6.70;4.97;;;;;;;;;;5057149;28;20534;-71
2021/12/03 05:31:51;;;;;;;5.93;5.30;;;;;;;;;;5083763;28;20481;-72
2021/12/03 05:34:20;;;;;;;8.70;5.20;;;;;;;;;;5074658;28;20446;-71
2021/12/03 05:36:47;;;;;;;7.20;4.77;;;;;;;;;;5072355;28;20441;-72
2021/12/03 05:39:14;;;;;;;4.90;4.40;;;;;;;;;;5065174;28;20568;-71
2021/12/03 05:41:42;;;;;;;11.63;5.77;;;;;;;;;;5057940;28;20439;-72
2021/12/03 05:44:09;;;;;;;7.40;5.07;;;;;;;;;;5061624;28;20981;-72
2021/12/03 05:46:38;;;;;;;7.10;5.40;;;;;;;;;;5069694;28;20529;-72
2021/12/03 05:49:06;;;;;;;6.33;4.90;;;;;;;;;;5070296;28;20441;-71
2021/12/03 05:51:33;;;;;;;7.40;4.53;;;;;;;;;;5063845;28;21093;-71
2021/12/03 05:54:00;;;;;;;13.57;5.53;;;;;;;;;;5063731;28;20537;-71
2021/12/03 05:56:27;;;;;;;9.27;5.57;;;;;;;;;;5061654;28;20533;-72
2021/12/03 05:58:55;;;;;;;9.30;6.03;;;;;;;;;;5055307;28;20528;-71
2021/12/03 06:01:22;;;;;;;7.67;5.30;;;;;;;;;;5058896;28;20547;-70
2021/12/03 06:03:51;;;;;;;6.33;4.43;;;;;;;;;;5066261;28;20450;-70
2021/12/03 06:06:18;;;;;;;6.20;4.60;;;;;;;;;;5054618;28;20477;-70
2021/12/03 06:08:45;;;;;;;6.40;5.27;;;;;;;;;;5066566;28;20594;-75
2021/12/03 06:11:13;;;;;;;6.97;4.80;;;;;;;;;;5063912;28;20541;-74
2021/12/03 06:13:40;;;;;;;6.53;5.57;;;;;;;;;;5070629;28;20800;-74
2021/12/03 06:16:08;;;;;;;7.20;4.83;;;;;;;;;;5062480;28;20813;-74
2021/12/03 06:18:35;;;;;;;6.63;5.13;;;;;;;;;;5067375;28;20465;-72
2021/12/03 06:21:05;;;;;;;7.53;5.13;;;;;;;;;;5070431;28;20485;-73
2021/12/03 06:23:32;;;;;;;6.80;5.50;;;;;;;;;;5057381;28;20532;-73
2021/12/03 06:26:00;;;;;;;7.30;5.70;;;;;;;;;;5056822;28;20450;-73
2021/12/03 06:28:28;;;;;;;8.13;5.27;;;3.90;1.00;;;;;;5056341;28;20949;-73
2021/12/03 06:30:55;;;;;;;7.50;4.50;;;;;;;;;;5069723;28;20448;-69
2021/12/03 06:33:22;;;;;;;11.43;5.90;;;;;;;;;;5059155;28;20531;-71
2021/12/03 06:35:50;;;;;;;7.27;5.63;;;;;;;;;;5056973;28;21282;-73
2021/12/03 06:38:19;;;;;;;7.03;5.23;;;;;;;;;;5051161;28;20815;-73
2021/12/03 06:40:47;;;;;;;11.40;5.20;;;;;;;;;;5053941;28;20447;-73
2021/12/03 06:43:14;;;;;;;7.00;5.43;;;;;;;;;;5062411;28;21063;-74
2021/12/03 06:45:41;;;;;;;7.23;4.50;;;;;;;;;;5072281;28;20924;-75
2021/12/03 06:48:10;;;;;;;6.87;5.37;;;;;;;;;;5053738;28;20449;-72
2021/12/03 06:50:38;;;;;;;8.30;5.30;;;;;;;;;;5054641;28;20537;-74
2021/12/03 06:53:07;;;;;;;9.40;5.43;;;;;;;;;;5053316;28;20481;-75
2021/12/03 06:55:38;;;;;;;7.37;6.03;;;;;;;;;;5054036;28;20547;-72
2021/12/03 06:58:06;;;;;;;7.07;4.90;;;;;;;;;;5053807;28;20466;-72
2021/12/03 07:00:33;;;;;;;7.27;4.70;;;;;;;;;;5054088;28;20501;-72
2021/12/03 07:03:00;;;;;;;5.70;4.57;;;;;;;;;;5053487;28;20881;-72
2021/12/03 07:05:27;;;;;;;8.77;5.20;;;;;;;;;;5054430;28;20450;-73
2021/12/03 07:07:54;;;;;;;8.40;4.90;;;;;;;;;;5053593;28;20448;-72
2021/12/03 07:10:22;;;;;;;6.67;4.80;;;;;;;;;;5054225;28;20474;-72
2021/12/03 07:12:51;;;;;;;6.63;4.10;;;;;;;;;;5053585;28;20508;-72
2021/12/03 07:15:18;;;;;;;5.77;4.47;;;;;;;;;;5053849;28;20508;-76
2021/12/03 07:17:49;;;;;;;6.70;4.10;;;;;;;;;;5054070;28;20540;-72
2021/12/03 07:20:17;;;;;;;10.20;5.10;;;;;;;;;;5053537;28;20792;-74
2021/12/03 07:22:44;;;;;;;8.57;5.03;;;;;;;;;;5053136;28;20449;-76
2021/12/03 07:25:11;;;;;;;7.17;5.80;;;;;;;;;;5053173;28;20447;-73
2021/12/03 07:27:39;;;;;;;8.87;6.20;;;;;;;;;;5053828;28;20444;-76
2021/12/03 07:30:08;;;;;;;8.93;5.90;;;;;;;;;;5053130;28;20470;-73
2021/12/03 07:32:35;;;;;;;7.73;5.63;;;;;;;;;;5053244;28;20488;-74
2021/12/03 07:35:03;;;;;;;6.00;4.63;;;;;;;;;;5053011;28;20446;-75
2021/12/03 07:37:30;;;;;;;6.97;4.20;;;;;;;;;;5053761;28;20450;-73
2021/12/03 07:39:58;;;;;;;8.43;5.43;;;;;;;;;;5053040;28;20525;-75
2021/12/03 07:42:25;;;;;;;7.17;4.43;;;;;;;;;;5055282;28;21004;-76
2021/12/03 07:44:53;;;;;;;5.30;4.77;;;;;;;;;;5072538;28;20577;-71
2021/12/03 07:47:21;;;;;;;12.10;5.47;;;;;;;;;;5057769;28;20537;-75
2021/12/03 07:49:50;;;;;;;7.77;4.50;;;;;;;;;;5053581;28;20456;-75
2021/12/03 07:52:19;;;;;;;6.87;4.90;;;;;;;;;;5052299;28;20485;-75
2021/12/03 07:54:46;;;;;;;7.30;4.07;;;;;;;;;;5053362;28;20532;-75
2021/12/03 07:57:13;;;;;;;7.03;4.30;;;;;;;;;;5052111;28;20954;-74
2021/12/03 07:59:40;;;;;;;8.23;4.33;;;;;;;;;;5053472;28;20815;-75
2021/12/03 08:02:08;;;;;;;6.50;4.83;;;;;;;;;;5052077;28;20960;-75
2021/12/03 08:04:36;;;;;;;7.00;4.93;;;;;;;;;;5052633;28;21014;-75
2021/12/03 08:07:04;;;;;;;10.50;5.50;;;;;;;;;;5052504;28;20541;-75
2021/12/03 08:09:31;;;;;;;5.83;3.87;;;;;;;;;;5053172;28;20492;-75
2021/12/03 08:11:58;;;;;;;8.87;4.80;;;;;;;;;;5052109;28;21119;-75
2021/12/03 08:14:25;;;;;;;7.00;5.43;;;;;;;;;;5053600;28;20534;-75
2021/12/03 08:16:53;;;;;;;7.53;5.50;;;;;;;;;;5071809;28;20449;-70
2021/12/03 08:19:20;;;;;;;6.63;5.50;;;;;;;;;;5075256;28;20454;-74
2021/12/03 08:21:48;;;;;;;5.10;4.60;;;;;;;;;;5063483;28;20531;-74
2021/12/03 08:24:15;;;;;;;9.47;5.87;;;;;;;;;;5053555;28;20533;-75
2021/12/03 08:26:42;;;;;;;9.80;6.57;;;;;;;;;;5052671;28;20460;-74
2021/12/03 08:29:10;;;;;;;8.60;4.90;;;;;;;;;;5051993;28;20453;-75
2021/12/03 08:31:39;;;;;;;6.53;5.07;;;;;;;;;;5052626;28;20794;-74
2021/12/03 08:34:06;;;;;;;8.37;5.20;;;;;;;;;;5051227;28;20450;-75
2021/12/03 08:36:33;;;;;;;8.97;5.37;;;;;;;;;;5052579;28;20451;-75
2021/12/03 08:39:01;;;;;;;5.30;4.37;;;;;;;;;;5052134;28;20447;-74
2021/12/03 08:41:29;;;;;;;6.37;4.70;;;;;;;;;;5052759;28;20520;-75
2021/12/03 08:43:56;;;;;;;7.20;4.87;;;;;;;;;;5066050;28;20906;-75
2021/12/03 08:46:26;;;;;;;8.07;5.60;;;;;;;;;;5064489;28;20481;-74
2021/12/03 08:48:55;;;;;;;7.67;5.27;;;;;;;;;;5051737;28;20810;-75
2021/12/03 08:51:32;;;;;;;6.50;5.40;;;;;;;;;;5052011;28;20508;-73
2021/12/03 08:56:44;;;;;;;8.63;5.03;;;;;;;;;;5033413;28;20434;-75
2021/12/03 08:59:15;;;;;;;6.90;4.93;;;;;;;;;;5071009;28;20449;-75
2021/12/03 09:01:42;;;;;;;7.33;4.70;;;;;;;;;;5071875;28;20453;-75
2021/12/03 09:04:10;;;;;;;4.50;4.03;;;;;;;;;;5069809;28;20484;-76
2021/12/03 09:06:37;;;;;;;4.70;3.63;;;;;;;;;;5071696;28;20502;-75
2021/12/03 09:09:06;;;;;;;5.37;3.73;;;;;;;;;;5071227;28;20457;-76
2021/12/03 09:11:33;;;;;;;7.67;4.43;;;;;;;;;;5071863;28;20491;-75
2021/12/03 09:14:06;;;;;;;3.77;3.10;;;;;;;;;;5070966;28;20502;-74
2021/12/03 09:16:34;;;;;;;3.63;2.93;;;;;;;;;;5071375;28;20520;-75
2021/12/03 09:19:03;;;;;;;3.33;2.40;;;;;;;;;;5071261;28;20540;-74
2021/12/03 09:21:31;;;;;;;4.23;2.70;;;;;;;;;;5071436;28;20465;-74
2021/12/03 09:24:07;;;;;;;2.67;2.27;;;;;;;;;;5070732;28;20941;-74
2021/12/03 09:26:37;;;;;;;3.43;2.60;;;;;;;;;;5071749;28;20465;-75
2021/12/03 09:29:07;;;;;;;4.80;2.47;;;;;;;;;;5070995;28;20453;-74
2021/12/03 09:31:36;;;;;;;2.30;1.80;;;;;;;;;;5071951;28;20452;-74
2021/12/03 09:34:05;;;;;;;2.70;2.20;;;;;;;;;;5070231;28;20993;-77
2021/12/03 09:36:32;;;;;;;3.53;3.23;;;;;;;;;;5071722;28;20449;-74
2021/12/03 09:39:00;;;;;;;9.63;3.47;;;;;;;;;;5070624;28;20453;-73
2021/12/03 09:41:28;;;;;;;2.83;2.53;;;;;;;;;;5071656;28;20446;-74
2021/12/03 09:43:55;;;;;;;3.13;2.20;;;;;;;;;;5069846;28;20484;-74
2021/12/03 09:46:25;;;;;;;3.93;2.40;;;;;;;;;;5063629;28;20525;-72
2021/12/03 09:51:46;;;;;;;2.13;1.87;;;;;;;;;;5056780;28;20430;-74
2021/12/03 09:57:02;;;;;;;3.00;2.20;;;;;;;;;;5046982;28;20431;-73
2021/12/03 10:13:36;;;;;;;4.00;2.13;;;;;;;;;;5071352;28;20513;-73
2021/12/03 10:16:10;;;;;;;3.23;2.27;;;;;;;;;;5074150;28;20445;-74
2021/12/03 10:18:43;;;;;;;3.83;2.40;;;;;;;;;;5075163;28;20630;-74
2021/12/03 10:21:21;;;;;;;3.73;2.33;;;;;;;;;;5074410;28;20506;-75
2021/12/03 10:29:56;;;;;;;4.30;2.43;;;;;;;;;;5074982;28;20433;-76
2021/12/03 10:32:53;;;;;;;3.30;2.40;;;;;;;;;;5074443;28;20450;-75
2021/12/03 10:43:57;;;;;;;4.63;1.97;;;;;;;;;;5070755;28;20506;-77
2021/12/03 10:46:41;;;;;;;2.60;2.07;;;;;;;;;;5074774;28;20452;-74
2021/12/03 10:49:22;;;;;;;3.33;2.00;;;;;;;;;;5073704;28;20956;-74
2021/12/03 10:52:00;;;;;;;4.83;2.70;;;;;;;;;;5074406;28;20447;-74
2021/12/03 10:54:52;;;;;;;3.57;2.10;;;;;;;;;;5074588;28;20476;-75
2021/12/03 11:11:00;;;;;;;5.63;2.83;;;;;;;;;;5073276;28;20504;-75
2021/12/03 11:26:15;;;;;;;6.47;2.83;;;;;;;;;;5073254;28;20777;-75
2021/12/03 11:37:01;;;;;;;3.53;2.37;;;;;;;;;;5073528;28;20909;-75
2021/12/03 13:09:43;;;;;;;2.10;1.83;;;;;;;;;;5071053;28;20416;-74
2021/12/03 13:18:16;;;;;;;3.53;2.00;;;;;;;;;;5071766;28;20421;-75
2021/12/03 13:21:23;;;;;;;5.00;1.83;;;;;;;;;;5071497;28;20952;-75
2021/12/03 14:00:35;;;;;;;1.57;1.47;;;;;;;;;;5050595;28;20664;-74
2021/12/03 14:39:50;;;;;;;2.47;1.53;;;;;;;;;;5071216;28;20429;-75
2021/12/03 14:45:09;;;;;;;2.70;1.67;;;;;;;;;;5070323;28;20437;-75
2021/12/03 14:50:46;;;;;;;5.93;1.90;;;;;;;;;;5047660;28;20445;-75
2021/12/03 14:56:02;;;;;;;1.70;1.60;;;;;;;;;;5032342;28;20433;-74
2021/12/03 14:58:33;;;;;;;3.20;2.27;;;;;;;;;;5050619;28;20536;-74
2021/12/03 15:01:07;;;;;;;2.70;1.97;;;;;;;;;;5051640;28;20437;-75
2021/12/03 15:03:45;;;;;;;5.30;2.80;;;;;;;;;;5053747;28;20944;-75
2021/12/03 15:06:27;;;;;;;1.87;1.70;;;;;;;;;;5053605;28;20850;-76
2021/12/03 15:08:57;;;;;;;2.20;1.93;;;;;;;;;;5053608;28;20519;-75
2021/12/03 15:25:29;;;;;;;3.60;2.40;;;;;;;;;;5068976;28;20432;-72
2021/12/03 15:31:01;;;;;;;6.80;3.33;;;;;;;;;;5037129;28;20934;-75
2021/12/03 15:33:38;;;;;;;2.20;1.73;;;;;;;;;;5064967;28;20491;-74
2021/12/03 15:36:11;;;;;;;3.60;2.50;;;;;;;;;;5060335;28;20445;-73
2021/12/03 15:38:54;;;;;;;3.30;2.23;;;;;;;;;;5068245;28;20441;-78
2021/12/03 15:51:44;;;;;;;2.93;2.30;;;;;;;;;;5072596;28;20444;-74
2021/12/03 15:58:28;;;;;;;3.50;2.30;;;;;;;;;;5050988;28;20442;-74
2021/12/03 16:03:57;;;;;;;4.80;2.53;;;3.10;1.00;;;;;;5055011;28;20425;-74
2021/12/03 16:06:36;;;;;;;6.73;2.87;;;3.10;99.90;;;;;;5061294;28;20482;-74
2021/12/03 16:09:12;;;;;;;3.60;2.07;;;3.20;34.80;;;;;;5062583;28;20456;-73
2021/12/03 16:11:43;;;;;;;3.83;3.33;;;3.20;44.40;;;;;;5071174;28;20521;-74
2021/12/03 16:14:46;;;;;;;7.20;3.13;;;3.30;1.00;;;;;;5069066;28;20488;-73
2021/12/03 16:22:51;;;;;;;3.73;2.63;;;3.20;1.00;;;;;;5068966;28;20448;-75
2021/12/03 16:44:46;;;;;;;5.40;2.70;;;3.10;1.00;;;;;;5058895;28;20485;-73
2021/12/03 16:50:21;;;;;;;3.50;2.73;;;3.00;99.90;;;;;;5027185;28;20442;-73
2021/12/03 16:52:50;;;;;;;5.17;3.30;;;3.00;51.20;;;;;;5068714;28;20859;-74
2021/12/03 16:55:18;;;;;;;3.13;2.73;;;3.00;99.90;;;;;;5057812;28;20494;-79
2021/12/03 16:57:49;;;;;;;6.10;3.63;;;2.90;51.90;;;;;;5063286;28;20469;-73
2021/12/03 17:00:21;;;;;;;3.87;3.07;;;2.90;1.00;;;;;;5062877;28;20453;-75
2021/12/03 17:02:54;;;;;;;4.80;3.10;;;3.20;1.00;;;;;;5065233;28;20460;-71
2021/12/03 17:05:38;;;;;;;5.70;3.20;;;3.30;99.90;;;;;;5062088;28;20457;-73
2021/12/03 17:11:32;;;;;;;4.60;3.33;;;3.40;1.00;;;;;;5000439;28;20436;-72
2021/12/03 17:17:25;;;;;;;3.43;2.33;;;3.40;87.80;;;;;;5030250;28;20957;-72
2021/12/03 17:50:44;;;;;;;5.00;2.97;;;3.60;16.30;;;;;;5052749;28;20442;-72
2021/12/03 17:53:32;;;;;;;4.63;3.60;;;;;;;;;;5070979;28;20450;-74
2021/12/03 17:56:07;;;;;;;5.00;3.00;;;;;;;;;;5070694;28;20454;-74
2021/12/03 17:58:36;;;;;;;3.93;2.33;;;;;;;;;;5071677;28;20446;-75
2021/12/03 18:01:06;;;;;;;4.03;2.70;;;;;;;;;;5084154;28;20429;-75
2021/12/03 18:03:42;;;;;;;4.20;3.03;;;;;;;;;;5091542;28;20491;-71
2021/12/03 18:09:00;;;;;;;3.70;2.43;;;;;;;;;;5071280;28;20838;-72
2021/12/03 18:11:58;;;;;;;2.50;2.30;;;;;;;;;;5071057;28;20544;-72
2021/12/03 18:50:50;;;;;;;4.20;3.63;;;;;;;;;;5037914;28;20457;-73
2021/12/03 18:56:09;;;;;;;5.17;2.47;;;;;;;;;;5046952;28;20441;-72
2021/12/03 18:58:37;;;;;;;4.33;2.93;;;;;;;;;;5058610;28;20523;-73
2021/12/03 19:01:04;;;;;;;4.20;2.90;;;;;;;;;;5053611;28;20461;-73
2021/12/03 19:03:41;;;;;;;4.80;2.90;;;;;;;;;;5053773;28;20507;-73
2021/12/03 19:06:17;;;;;;;4.63;3.10;;;;;;;;;;5053720;28;20847;-74
2021/12/03 19:08:49;;;;;;;2.60;2.40;;;;;;;;;;5054246;28;20473;-74
2021/12/03 19:11:21;;;;;;;4.20;2.83;;;;;;;;;;5053511;28;20519;-74
2021/12/03 19:13:48;;;;;;;4.77;3.40;;;;;;;;;;5053896;28;20846;-74
2021/12/03 19:16:17;;;;;;;4.67;3.00;;;;;;;;;;5053260;28;21043;-73
2021/12/03 19:18:47;;;;;;;4.17;3.07;;;;;;;;;;5053636;28;20443;-74
2021/12/03 19:21:23;;;;;;;5.90;3.80;;;;;;;;;;5052822;28;20957;-73
2021/12/03 19:23:52;;;;;;;4.20;2.77;;;;;;;;;;5053671;28;20443;-73
2021/12/03 19:26:19;;;;;;;5.97;3.37;;;;;;;;;;5053898;28;20492;-73
2021/12/03 19:28:47;;;;;;;5.90;3.87;;;;;;;;;;5053605;28;20453;-72
2021/12/03 19:31:15;;;;;;;5.73;3.43;;;;;;;;;;5052871;28;20472;-73
2021/12/03 19:33:42;;;;;;;5.70;2.87;;;;;;;;;;5053013;28;21304;-74
2021/12/03 19:36:10;;;;;;;5.27;2.77;;;;;;;;;;5053155;28;20533;-72
2021/12/03 19:38:38;;;;;;;4.50;3.60;;;;;;;;;;5053658;28;20450;-72
2021/12/03 19:41:16;;;;;;;4.63;2.90;;;;;;;;;;5052611;28;20457;-73
2021/12/03 19:43:46;;;;;;;5.53;2.57;;;;;;;;;;5065950;28;20559;-74
2021/12/03 19:46:20;;;;;;;3.30;3.00;;;;;;;;;;5072672;28;20449;-73
2021/12/03 19:48:51;;;;;;;7.83;2.73;;;;;;;;;;5072683;28;20532;-73
2021/12/03 19:51:20;;;;;;;3.10;2.60;;;;;;;;;;5073512;28;20472;-74
2021/12/03 19:53:54;;;;;;;4.47;2.80;;;;;;;;;;5072922;28;20827;-73
2021/12/03 19:56:23;;;;;;;6.63;3.20;;;;;;;;;;5073505;28;20523;-74
2021/12/03 19:58:52;;;;;;;5.50;3.10;;;;;;;;;;5073118;28;21273;-74
2021/12/03 20:01:19;;;;;;;2.30;2.10;;;;;;;;;;5072943;28;20939;-73
2021/12/03 20:03:48;;;;;;;3.50;3.20;;;;;;;;;;5072756;28;20477;-74
2021/12/03 20:06:15;;;;;;;4.17;3.03;;;;;;;;;;5071989;28;20454;-74
2021/12/03 20:08:43;;;;;;;4.03;2.33;;;;;;;;;;5072736;28;20449;-73
2021/12/03 20:11:10;;;;;;;4.93;2.50;;;;;;;;;;5072252;28;20438;-73
2021/12/03 20:13:43;;;;;;;3.90;3.30;;;;;;;;;;5072203;28;20466;-74
2021/12/03 20:16:20;;;;;;;3.30;3.00;;;;;;;;;;5071661;28;20473;-74
2021/12/03 20:18:50;;;;;;;4.93;2.90;;;;;;;;;;5072180;28;20976;-73
2021/12/03 20:21:19;;;;;;;3.67;2.90;;;;;;;;;;5071817;28;20451;-73
2021/12/03 20:23:54;;;;;;;3.40;2.70;;;;;;;;;;5072444;28;20444;-74
2021/12/03 20:26:35;;;;;;;5.83;2.50;;;;;;;;;;5072552;28;20445;-74
2021/12/03 20:29:06;;;;;;;4.33;3.90;;;;;;;;;;5071669;28;20452;-73
2021/12/03 20:31:37;;;;;;;3.60;2.77;;;;;;;;;;5072109;28;20922;-73
2021/12/03 20:34:24;;;;;;;4.83;3.23;;;;;;;;;;5071231;28;20452;-74
2021/12/03 20:36:54;;;;;;;3.20;2.90;;;;;;;;;;5052772;28;20854;-74
2021/12/03 20:39:24;;;;;;;4.87;2.70;;;;;;;;;;5052578;28;20465;-74
2021/12/03 20:41:57;;;;;;;3.87;3.27;;;;;;;;;;5052721;28;20468;-74
2021/12/03 20:47:48;;;;;;;3.03;2.73;;;;;;;;;;5056531;28;20846;-75
2021/12/03 20:50:43;;;;;;;6.30;3.10;;;;;;;;;;5093755;28;20456;-73
2021/12/03 20:53:22;;;;;;;3.60;2.20;;;;;;;;;;5064499;28;20439;-75
2021/12/03 21:09:40;;;;;;;3.33;2.90;;;;;;;;;;5071619;28;20548;-74
2021/12/03 21:12:15;;;;;;;4.43;3.60;;;;;;;;;;5071118;28;20475;-74
2021/12/03 21:14:49;;;;;;;5.03;3.57;;;;;;;;;;5071334;28;20479;-74
2021/12/03 21:20:12;;;;;;;3.37;2.53;;;;;;;;;;5054987;28;20437;-74
2021/12/03 21:22:43;;;;;;;4.60;2.60;;;;;;;;;;5071680;28;20450;-72
2021/12/03 21:25:14;;;;;;;4.03;2.87;;;;;;;;;;5070386;28;20879;-74
2021/12/03 21:27:43;;;;;;;3.00;2.23;;;;;;;;;;5071536;28;20461;-74
2021/12/03 21:30:22;;;;;;;4.07;3.10;;;;;;;;;;5070844;28;20499;-73
2021/12/03 21:32:58;;;;;;;5.20;3.20;;;;;;;;;;5071108;28;20932;-75
2021/12/03 21:41:00;;;;;;;3.40;2.63;;;;;;;;;;5037543;28;20434;-75
2021/12/03 21:43:29;;;;;;;3.10;2.60;;;;;;;;;;5070959;28;20489;-72
2021/12/03 21:45:56;;;;;;;3.03;2.73;;;;;;;;;;5052322;28;20534;-72
2021/12/03 21:48:25;;;;;;;6.30;2.73;;;;;;;;;;5051085;28;20525;-71